createdAt,value
2023-05-15T00:01:49.480Z,80.36
2023-05-15T00:04:16.520Z,79.93
2023-05-15T00:06:43.173Z,80.36
2023-05-15T00:09:09.899Z,79.88
2023-05-15T00:11:36.489Z,79.79
2023-05-15T00:14:03.238Z,80.09
2023-05-15T00:16:29.967Z,79.52
2023-05-15T00:18:56.650Z,79.45
2023-05-15T00:21:23.296Z,79.54
2023-05-15T00:23:49.902Z,79.33
2023-05-15T00:26:16.490Z,79.18
2023-05-15T00:28:43.071Z,78.88
2023-05-15T00:31:09.973Z,78.58
2023-05-15T00:33:36.575Z,78.59
2023-05-15T00:36:03.309Z,78.89
2023-05-15T00:38:30.801Z,78.71
2023-05-15T00:40:57.464Z,78.37
2023-05-15T00:43:24.140Z,78.71
2023-05-15T00:45:50.797Z,78.42
2023-05-15T00:48:17.490Z,78.45
2023-05-15T00:50:44.144Z,78.70
2023-05-15T00:53:10.770Z,78.71
2023-05-15T00:55:37.557Z,78.52
2023-05-15T00:58:04.222Z,78.93
2023-05-15T01:00:31.741Z,78.23
2023-05-15T01:02:58.489Z,78.24
2023-05-15T01:05:25.578Z,78.73
2023-05-15T01:07:57.604Z,78.61
2023-05-15T01:10:24.244Z,78.86
2023-05-15T01:12:51.534Z,79.01
2023-05-15T01:15:18.158Z,78.95
2023-05-15T01:17:44.935Z,78.87
2023-05-15T01:20:12.247Z,79.04
2023-05-15T01:22:52.418Z,79.32
2023-05-15T01:25:43.934Z,79.03
2023-05-15T01:28:12.515Z,78.95
2023-05-15T01:30:39.982Z,78.99
2023-05-15T01:33:17.410Z,78.90
2023-05-15T01:35:59.327Z,79.10
2023-05-15T01:38:36.777Z,78.70
2023-05-15T01:41:10.586Z,78.74
2023-05-15T01:43:39.209Z,78.73
2023-05-15T01:46:06.227Z,79.11
2023-05-15T01:48:33.442Z,79.08
2023-05-15T01:51:02.760Z,79.39
2023-05-15T01:53:32.909Z,79.07
2023-05-15T01:55:59.628Z,78.83
2023-05-15T01:58:26.391Z,78.52
2023-05-15T02:00:53.043Z,78.45
2023-05-15T02:03:20.136Z,79.14
2023-05-15T02:05:46.938Z,79.37
2023-05-15T02:08:13.662Z,79.33
2023-05-15T02:10:40.435Z,79.05
2023-05-15T02:13:10.214Z,79.52
2023-05-15T02:15:36.882Z,79.81
2023-05-15T02:18:03.695Z,79.85
2023-05-15T02:20:30.316Z,79.72
2023-05-15T02:22:56.983Z,80.02
2023-05-15T02:25:31.204Z,80.01
2023-05-15T02:27:59.015Z,80.31
2023-05-15T02:30:32.295Z,80.64
2023-05-15T02:33:20.335Z,80.90
2023-05-15T02:35:57.526Z,80.96
2023-05-15T02:38:31.569Z,80.76
2023-05-15T02:40:58.252Z,81.01
2023-05-15T02:43:24.853Z,81.03
2023-05-15T02:45:51.470Z,80.90
2023-05-15T02:48:18.136Z,81.01
2023-05-15T02:50:44.980Z,80.87
2023-05-15T02:53:14.609Z,80.96
2023-05-15T02:55:41.488Z,81.37
2023-05-15T02:58:08.121Z,81.20
2023-05-15T03:00:34.799Z,80.99
2023-05-15T03:03:01.414Z,80.67
2023-05-15T03:05:28.401Z,80.22
2023-05-15T03:07:55.729Z,80.28
2023-05-15T03:10:24.168Z,79.99
2023-05-15T03:12:50.826Z,80.08
2023-05-15T03:15:17.971Z,80.11
2023-05-15T03:17:45.029Z,79.83
2023-05-15T03:20:11.731Z,80.23
2023-05-15T03:22:38.274Z,80.21
2023-05-15T03:25:05.205Z,79.92
2023-05-15T03:27:31.822Z,79.83
2023-05-15T03:29:58.436Z,80.00
2023-05-15T03:32:25.120Z,79.95
2023-05-15T03:34:51.730Z,79.88
2023-05-15T03:37:18.361Z,79.82
2023-05-15T03:39:44.974Z,79.94
2023-05-15T03:42:11.648Z,79.31
2023-05-15T03:44:38.549Z,79.13
2023-05-15T03:47:05.414Z,79.70
2023-05-15T03:49:32.065Z,79.40
2023-05-15T03:51:58.648Z,79.95
2023-05-15T03:54:25.540Z,78.97
2023-05-15T03:56:52.188Z,79.12
2023-05-15T03:59:18.891Z,79.08
2023-05-15T04:02:02.973Z,79.43
2023-05-15T04:04:31.245Z,79.46
2023-05-15T04:06:57.838Z,79.79
2023-05-15T04:09:24.496Z,79.32
2023-05-15T04:11:51.092Z,79.29
2023-05-15T04:14:17.702Z,79.29
2023-05-15T04:16:44.556Z,80.00
2023-05-15T04:19:11.315Z,79.54
2023-05-15T04:21:37.984Z,78.84
2023-05-15T04:24:04.945Z,79.25
2023-05-15T04:26:31.826Z,79.19
2023-05-15T04:29:04.012Z,79.10
2023-05-15T04:31:31.885Z,78.70
2023-05-15T04:33:58.670Z,78.81
2023-05-15T04:36:25.471Z,79.15
2023-05-15T04:38:52.100Z,79.24
2023-05-15T04:41:18.784Z,79.11
2023-05-15T04:43:45.981Z,79.02
2023-05-15T04:46:12.724Z,79.18
2023-05-15T04:48:39.666Z,79.18
2023-05-15T04:51:07.563Z,79.51
2023-05-15T04:53:34.274Z,79.45
2023-05-15T04:56:01.210Z,79.05
2023-05-15T04:58:27.861Z,79.06
2023-05-15T05:00:54.532Z,79.31
2023-05-15T05:03:21.280Z,78.77
2023-05-15T05:05:48.000Z,78.94
2023-05-15T05:08:14.619Z,78.77
2023-05-15T05:10:41.236Z,79.23
2023-05-15T05:13:08.029Z,78.90
2023-05-15T05:15:34.653Z,79.43
2023-05-15T05:18:01.391Z,79.15
2023-05-15T05:20:28.409Z,79.33
2023-05-15T05:22:55.011Z,79.39
2023-05-15T05:25:23.147Z,79.59
2023-05-15T05:27:49.856Z,79.46
2023-05-15T05:30:16.685Z,79.80
2023-05-15T05:32:43.386Z,80.13
2023-05-15T05:35:10.916Z,79.98
2023-05-15T05:37:38.823Z,79.68
2023-05-15T05:40:08.901Z,79.63
2023-05-15T05:42:35.559Z,79.60
2023-05-15T05:45:02.332Z,79.68
2023-05-15T05:47:29.085Z,79.69
2023-05-15T05:49:55.889Z,79.50
2023-05-15T05:52:22.534Z,79.40
2023-05-15T05:54:49.512Z,79.10
2023-05-15T05:57:16.075Z,79.11
2023-05-15T05:59:42.679Z,78.94
2023-05-15T06:02:09.422Z,79.13
2023-05-15T06:04:36.205Z,78.83
2023-05-15T06:07:03.367Z,78.94
2023-05-15T06:09:30.059Z,79.19
2023-05-15T06:11:56.908Z,79.00
2023-05-15T06:14:23.583Z,78.92
2023-05-15T06:16:51.047Z,79.20
2023-05-15T06:19:17.942Z,79.27
2023-05-15T06:21:45.191Z,79.52
2023-05-15T06:24:12.401Z,79.96
2023-05-15T06:26:39.003Z,80.17
2023-05-15T06:29:06.306Z,80.03
2023-05-15T06:31:33.152Z,80.33
2023-05-15T06:34:00.252Z,80.32
2023-05-15T06:36:26.979Z,80.56
2023-05-15T06:38:55.050Z,80.73
2023-05-15T06:41:21.694Z,81.11
2023-05-15T06:43:48.345Z,81.35
2023-05-15T06:46:17.217Z,81.43
2023-05-15T06:48:43.925Z,81.45
2023-05-15T06:51:10.647Z,82.24
2023-05-15T06:53:37.294Z,81.50
2023-05-15T06:56:03.968Z,81.89
2023-05-15T06:58:30.629Z,82.20
2023-05-15T07:00:58.727Z,82.19
2023-05-15T07:03:26.094Z,81.76
2023-05-15T07:05:53.679Z,82.16
2023-05-15T07:08:20.349Z,82.13
2023-05-15T07:10:47.135Z,81.99
2023-05-15T07:13:13.741Z,81.93
2023-05-15T07:15:40.430Z,81.96
2023-05-15T07:18:07.136Z,82.19
2023-05-15T07:20:35.176Z,82.25
2023-05-15T07:23:02.183Z,82.18
2023-05-15T07:25:29.090Z,81.84
2023-05-15T07:27:56.048Z,81.60
2023-05-15T07:30:23.320Z,81.32
2023-05-15T07:32:50.281Z,81.64
2023-05-15T07:35:16.972Z,82.09
2023-05-15T07:37:43.671Z,81.96
2023-05-15T07:40:10.604Z,81.79
2023-05-15T07:42:37.316Z,81.67
2023-05-15T07:45:04.186Z,81.53
2023-05-15T07:47:30.819Z,81.68
2023-05-15T07:49:57.570Z,81.55
2023-05-15T07:52:24.225Z,81.49
2023-05-15T07:54:50.908Z,81.20
2023-05-15T07:57:17.486Z,81.65
2023-05-15T07:59:44.105Z,82.28
2023-05-15T08:02:10.905Z,82.17
2023-05-15T08:04:37.658Z,82.10
2023-05-15T08:07:04.656Z,81.66
2023-05-15T08:09:31.301Z,81.76
2023-05-15T08:12:04.920Z,81.92
2023-05-15T08:14:31.691Z,80.88
2023-05-15T08:16:58.347Z,80.87
2023-05-15T08:19:26.307Z,79.23
2023-05-15T08:21:52.923Z,77.70
2023-05-15T08:24:19.695Z,76.88
2023-05-15T08:26:46.295Z,76.90
2023-05-15T08:29:12.906Z,76.62
2023-05-15T08:31:39.601Z,76.99
2023-05-15T08:34:06.313Z,76.25
2023-05-15T08:36:33.723Z,76.67
2023-05-15T08:39:00.290Z,78.37
2023-05-15T08:41:40.553Z,78.17
2023-05-15T08:44:08.809Z,77.63
2023-05-15T08:46:35.694Z,77.62
2023-05-15T08:49:05.355Z,78.17
2023-05-15T08:51:32.035Z,78.63
2023-05-15T08:53:58.795Z,78.07
2023-05-15T08:56:25.394Z,76.68
2023-05-15T08:58:52.023Z,76.18
2023-05-15T09:01:18.716Z,76.08
2023-05-15T09:03:45.357Z,76.39
2023-05-15T09:06:12.187Z,75.45
2023-05-15T09:08:38.783Z,75.83
2023-05-15T09:11:05.566Z,76.44
2023-05-15T09:13:32.236Z,77.61
2023-05-15T09:15:59.010Z,77.49
2023-05-15T09:18:25.681Z,76.64
2023-05-15T09:20:54.094Z,77.36
2023-05-15T09:23:24.880Z,78.66
2023-05-15T09:25:56.323Z,77.93
2023-05-15T09:28:29.916Z,77.18
2023-05-15T09:31:03.881Z,73.54
2023-05-15T09:33:35.087Z,72.37
2023-05-15T09:36:02.463Z,71.46
2023-05-15T09:38:29.299Z,72.63
2023-05-15T09:41:03.147Z,72.40
2023-05-15T09:43:30.889Z,72.86
2023-05-15T09:45:57.739Z,73.23
2023-05-15T09:48:24.548Z,73.22
2023-05-15T09:50:51.312Z,73.55
2023-05-15T09:53:21.408Z,75.46
2023-05-15T09:55:48.363Z,76.47
2023-05-15T09:58:17.353Z,75.12
2023-05-15T10:00:48.658Z,70.46
2023-05-15T10:03:18.642Z,68.37
2023-05-15T10:05:45.361Z,67.82
2023-05-15T10:08:12.785Z,67.07
2023-05-15T10:10:39.602Z,65.98
2023-05-15T10:13:06.436Z,65.39
2023-05-15T10:15:33.315Z,66.05
2023-05-15T10:18:00.601Z,67.04
2023-05-15T10:20:27.557Z,67.28
2023-05-15T10:22:56.225Z,70.29
2023-05-15T10:25:32.174Z,71.70
2023-05-15T10:27:59.117Z,70.66
2023-05-15T10:30:26.101Z,66.40
2023-05-15T10:32:53.070Z,64.39
2023-05-15T10:35:19.948Z,66.72
2023-05-15T10:37:47.489Z,64.25
2023-05-15T10:40:15.383Z,65.87
2023-05-15T10:42:43.098Z,65.59
2023-05-15T10:45:10.019Z,64.28
2023-05-15T10:47:37.782Z,64.16
2023-05-15T10:50:05.463Z,66.42
2023-05-15T10:52:33.528Z,62.08
2023-05-15T10:55:00.698Z,61.31
2023-05-15T10:57:30.412Z,63.27
2023-05-15T10:59:57.096Z,64.44
2023-05-15T11:02:29.415Z,64.46
2023-05-15T11:04:59.758Z,62.22
2023-05-15T11:07:26.787Z,60.57
2023-05-15T11:09:54.012Z,61.56
2023-05-15T11:12:20.756Z,60.48
2023-05-15T11:14:56.695Z,59.25
2023-05-15T11:17:23.584Z,58.87
2023-05-15T11:19:50.096Z,58.99
2023-05-15T11:22:20.670Z,58.89
2023-05-15T11:25:13.514Z,59.83
2023-05-15T11:27:46.409Z,61.10
2023-05-15T11:30:25.168Z,61.38
2023-05-15T11:33:11.383Z,62.23
2023-05-15T11:35:47.480Z,61.87
2023-05-15T11:38:18.001Z,64.25
2023-05-15T11:40:44.718Z,64.13
2023-05-15T11:43:18.938Z,64.17
2023-05-15T11:45:51.577Z,66.53
2023-05-15T11:48:18.457Z,66.19
2023-05-15T11:50:45.749Z,67.41
2023-05-15T11:53:12.714Z,67.68
2023-05-15T11:55:41.452Z,64.64
2023-05-15T11:58:12.490Z,62.95
2023-05-15T12:00:39.602Z,61.21
2023-05-15T12:03:06.560Z,62.68
2023-05-15T12:05:33.274Z,62.56
2023-05-15T12:07:59.922Z,63.26
2023-05-15T12:10:26.976Z,64.48
2023-05-15T12:12:53.745Z,66.01
2023-05-15T12:15:20.456Z,66.91
2023-05-15T12:17:47.299Z,68.07
2023-05-15T12:20:18.554Z,69.00
2023-05-15T12:22:45.292Z,69.56
2023-05-15T12:25:12.759Z,67.60
2023-05-15T12:27:39.660Z,69.17
2023-05-15T12:30:07.174Z,70.04
2023-05-15T12:32:34.908Z,68.92
2023-05-15T12:35:01.962Z,64.92
2023-05-15T12:37:29.096Z,64.66
2023-05-15T12:40:15.284Z,64.12
2023-05-15T12:42:42.704Z,64.23
2023-05-15T12:45:16.473Z,63.36
2023-05-15T12:47:43.864Z,63.98
2023-05-15T12:50:14.820Z,64.05
2023-05-15T12:52:54.605Z,60.80
2023-05-15T12:55:24.622Z,59.70
2023-05-15T12:58:02.414Z,58.13
2023-05-15T13:00:29.354Z,60.28
2023-05-15T13:02:57.200Z,62.55
2023-05-15T13:05:24.820Z,58.77
2023-05-15T13:07:52.431Z,59.64
2023-05-15T13:10:23.832Z,58.89
2023-05-15T13:12:52.142Z,57.12
2023-05-15T13:15:39.699Z,57.84
2023-05-15T13:18:07.641Z,56.43
2023-05-15T13:20:49.707Z,57.41
2023-05-15T13:23:19.992Z,57.81
2023-05-15T13:25:46.783Z,57.97
2023-05-15T13:28:13.761Z,58.06
2023-05-15T13:30:43.742Z,59.89
2023-05-15T13:33:11.924Z,60.06
2023-05-15T13:35:38.913Z,61.49
2023-05-15T13:38:05.920Z,62.48
2023-05-15T13:40:35.652Z,62.20
2023-05-15T13:43:02.236Z,62.88
2023-05-15T13:45:29.073Z,63.66
2023-05-15T13:47:56.006Z,64.00
2023-05-15T13:50:22.722Z,65.32
2023-05-15T13:52:49.359Z,62.08
2023-05-15T13:55:16.068Z,63.02
2023-05-15T13:57:43.102Z,63.65
2023-05-15T14:00:12.700Z,63.21
2023-05-15T14:02:40.105Z,62.70
2023-05-15T14:05:07.912Z,65.73
2023-05-15T14:07:34.510Z,61.70
2023-05-15T14:10:01.143Z,61.09
2023-05-15T14:12:27.801Z,61.45
2023-05-15T14:14:54.544Z,61.56
2023-05-15T14:17:22.518Z,61.60
2023-05-15T14:19:49.348Z,61.96
2023-05-15T14:22:16.035Z,61.42
2023-05-15T14:24:42.680Z,61.67
2023-05-15T14:27:09.360Z,62.34
2023-05-15T14:29:35.988Z,63.03
2023-05-15T14:32:02.880Z,62.76
2023-05-15T14:34:30.184Z,62.77
2023-05-15T14:36:56.812Z,62.60
2023-05-15T14:39:23.417Z,62.63
2023-05-15T14:41:50.081Z,62.67
2023-05-15T14:44:16.755Z,63.65
2023-05-15T14:46:43.673Z,64.70
2023-05-15T14:49:10.587Z,66.11
2023-05-15T14:51:37.322Z,66.65
2023-05-15T14:54:05.126Z,67.80
2023-05-15T14:56:32.008Z,68.52
2023-05-15T14:58:58.642Z,68.96
2023-05-15T15:01:25.321Z,69.66
2023-05-15T15:03:52.221Z,70.11
2023-05-15T15:06:19.250Z,70.12
2023-05-15T15:08:45.941Z,70.73
2023-05-15T15:11:12.719Z,70.97
2023-05-15T15:13:39.391Z,71.28
2023-05-15T15:16:08.225Z,72.71
2023-05-15T15:18:35.059Z,71.61
2023-05-15T15:21:01.739Z,72.73
2023-05-15T15:23:28.376Z,73.23
2023-05-15T15:25:55.197Z,71.61
2023-05-15T15:28:21.825Z,69.83
2023-05-15T15:30:48.442Z,68.32
2023-05-15T15:33:15.059Z,66.62
2023-05-15T15:35:41.881Z,67.74
2023-05-15T15:38:11.458Z,65.75
2023-05-15T15:40:38.051Z,64.65
2023-05-15T15:43:04.678Z,66.92
2023-05-15T15:45:31.340Z,68.03
2023-05-15T15:47:58.080Z,65.85
2023-05-15T15:50:25.077Z,64.44
2023-05-15T15:52:51.895Z,63.45
2023-05-15T15:55:18.476Z,63.55
2023-05-15T15:57:45.191Z,63.63
2023-05-15T16:00:12.486Z,63.97
2023-05-15T16:02:40.413Z,64.14
2023-05-15T16:05:07.902Z,64.73
2023-05-15T16:07:34.623Z,64.66
2023-05-15T16:10:11.876Z,65.70
2023-05-15T16:12:40.792Z,65.76
2023-05-15T16:15:21.674Z,66.40
2023-05-15T16:17:51.205Z,65.67
2023-05-15T16:20:17.915Z,66.23
2023-05-15T16:22:44.564Z,66.26
2023-05-15T16:25:11.306Z,66.65
2023-05-15T16:27:37.942Z,67.95
2023-05-15T16:30:04.794Z,68.17
2023-05-15T16:32:31.847Z,68.74
2023-05-15T16:34:58.473Z,69.54
2023-05-15T16:37:25.048Z,69.48
2023-05-15T16:39:51.730Z,69.74
2023-05-15T16:42:18.378Z,70.51
2023-05-15T16:44:45.007Z,70.30
2023-05-15T16:47:11.763Z,70.44
2023-05-15T16:49:38.384Z,71.08
2023-05-15T16:52:05.203Z,71.83
2023-05-15T16:54:31.937Z,71.99
2023-05-15T16:56:58.534Z,72.10
2023-05-15T16:59:25.246Z,71.97
2023-05-15T17:01:52.957Z,72.40
2023-05-15T17:04:19.678Z,72.59
2023-05-15T17:06:46.379Z,74.55
2023-05-15T17:09:13.146Z,74.51
2023-05-15T17:11:39.813Z,74.35
2023-05-15T17:14:07.016Z,73.32
2023-05-15T17:16:33.721Z,73.27
2023-05-15T17:19:00.391Z,72.92
2023-05-15T17:21:27.081Z,72.34
2023-05-15T17:23:54.270Z,72.04
2023-05-15T17:26:21.603Z,71.78
2023-05-15T17:28:48.242Z,71.32
2023-05-15T17:31:14.953Z,71.48
2023-05-15T17:33:41.726Z,71.32
2023-05-15T17:36:09.424Z,71.14
2023-05-15T17:38:36.099Z,71.11
2023-05-15T17:41:03.211Z,71.27
2023-05-15T17:43:29.849Z,71.07
2023-05-15T17:45:57.500Z,70.92
2023-05-15T17:48:24.178Z,71.06
2023-05-15T17:50:51.742Z,71.16
2023-05-15T17:53:18.482Z,72.11
2023-05-15T17:55:45.388Z,71.68
2023-05-15T17:58:12.145Z,72.10
2023-05-15T18:00:39.138Z,72.06
2023-05-15T18:03:05.913Z,71.95
2023-05-15T18:05:32.586Z,71.42
2023-05-15T18:08:01.609Z,71.40
2023-05-15T18:10:28.204Z,71.96
2023-05-15T18:12:54.880Z,72.05
2023-05-15T18:15:21.585Z,72.24
2023-05-15T18:17:48.210Z,72.28
2023-05-15T18:20:14.881Z,72.66
2023-05-15T18:22:43.353Z,72.87
2023-05-15T18:25:10.058Z,73.26
2023-05-15T18:27:36.924Z,73.25
2023-05-15T18:30:03.716Z,73.32
2023-05-15T18:32:30.366Z,73.45
2023-05-15T18:34:57.003Z,73.77
2023-05-15T18:37:23.962Z,73.71
2023-05-15T18:39:50.627Z,73.98
2023-05-15T18:42:17.265Z,73.92
2023-05-15T18:44:46.914Z,73.61
2023-05-15T18:47:13.662Z,74.09
2023-05-15T18:49:40.345Z,74.61
2023-05-15T18:52:06.972Z,74.87
2023-05-15T18:54:33.629Z,74.73
2023-05-15T18:57:00.251Z,75.17
2023-05-15T18:59:28.555Z,75.70
2023-05-15T19:01:55.606Z,75.21
2023-05-15T19:04:22.222Z,75.28
2023-05-15T19:06:50.385Z,75.19
2023-05-15T19:09:20.513Z,75.61
2023-05-15T19:11:49.265Z,75.09
2023-05-15T19:14:17.901Z,75.43
2023-05-15T19:16:45.373Z,75.32
2023-05-15T19:19:12.100Z,74.99
2023-05-15T19:21:38.954Z,75.46
2023-05-15T19:24:06.375Z,76.09
2023-05-15T19:26:32.969Z,76.01
2023-05-15T19:28:59.577Z,76.40
2023-05-15T19:31:31.359Z,77.33
2023-05-15T19:33:59.597Z,77.07
2023-05-15T19:36:26.292Z,77.27
2023-05-15T19:38:52.949Z,77.69
2023-05-15T19:41:19.584Z,77.82
2023-05-15T19:43:50.747Z,77.06
2023-05-15T19:46:18.165Z,77.58
2023-05-15T19:48:44.985Z,77.79
2023-05-15T19:51:11.780Z,77.86
2023-05-15T19:53:38.387Z,77.61
2023-05-15T19:56:05.317Z,77.60
2023-05-15T19:58:32.161Z,77.40
2023-05-15T20:00:58.963Z,77.85
2023-05-15T20:03:33.340Z,77.03
2023-05-15T20:06:01.388Z,77.49
2023-05-15T20:08:28.664Z,77.57
2023-05-15T20:10:55.526Z,78.10
2023-05-15T20:13:22.324Z,77.29
2023-05-15T20:15:54.845Z,77.49
2023-05-15T20:18:21.959Z,77.89
2023-05-15T20:20:48.602Z,78.03
2023-05-15T20:23:15.331Z,78.48
2023-05-15T20:25:42.416Z,78.41
2023-05-15T20:28:09.050Z,78.18
2023-05-15T20:30:35.676Z,78.45
2023-05-15T20:33:02.401Z,77.89
2023-05-15T20:35:29.770Z,77.93
2023-05-15T20:37:57.473Z,78.55
2023-05-15T20:40:27.286Z,78.03
2023-05-15T20:42:54.040Z,77.72
2023-05-15T20:45:20.918Z,78.70
2023-05-15T20:47:47.629Z,78.65
2023-05-15T20:50:14.297Z,78.53
2023-05-15T20:52:40.990Z,77.31
2023-05-15T20:55:15.947Z,77.14
2023-05-15T20:57:43.255Z,77.63
2023-05-15T21:00:10.827Z,77.15
2023-05-15T21:02:37.482Z,77.60
2023-05-15T21:05:04.539Z,78.40
2023-05-15T21:07:31.485Z,78.14
2023-05-15T21:09:58.223Z,78.04
2023-05-15T21:12:24.828Z,78.38
2023-05-15T21:14:51.448Z,78.53
2023-05-15T21:17:18.203Z,78.24
2023-05-15T21:19:44.966Z,78.79
2023-05-15T21:22:11.574Z,78.96
2023-05-15T21:24:38.234Z,79.23
2023-05-15T21:27:04.916Z,78.75
2023-05-15T21:29:31.559Z,78.68
2023-05-15T21:31:59.292Z,78.61
2023-05-15T21:34:26.050Z,78.47
2023-05-15T21:36:53.024Z,78.77
2023-05-15T21:39:19.670Z,78.61
2023-05-15T21:41:46.342Z,78.83
2023-05-15T21:44:13.161Z,78.81
2023-05-15T21:46:39.887Z,79.17
2023-05-15T21:49:06.584Z,79.03
2023-05-15T21:51:34.534Z,78.31
2023-05-15T21:54:01.211Z,77.76
2023-05-15T21:56:27.827Z,78.49
2023-05-15T21:58:54.423Z,78.64
2023-05-15T22:01:21.139Z,78.33
2023-05-15T22:03:48.086Z,78.78
2023-05-15T22:06:14.768Z,78.12
2023-05-15T22:08:41.370Z,78.48
2023-05-15T22:11:07.991Z,78.40
2023-05-15T22:13:34.591Z,78.76
2023-05-15T22:16:01.302Z,78.54
2023-05-15T22:18:28.943Z,78.51
2023-05-15T22:20:55.614Z,79.39
2023-05-15T22:23:22.273Z,78.89
2023-05-15T22:25:49.560Z,78.67
2023-05-15T22:28:16.473Z,79.30
2023-05-15T22:30:43.186Z,78.92
2023-05-15T22:33:09.873Z,79.46
2023-05-15T22:35:37.057Z,79.42
2023-05-15T22:38:05.728Z,79.85
2023-05-15T22:40:32.413Z,79.49
2023-05-15T22:42:59.009Z,79.24
2023-05-15T22:45:26.040Z,79.95
2023-05-15T22:47:52.919Z,80.26
2023-05-15T22:50:19.686Z,79.70
2023-05-15T22:52:46.290Z,80.54
2023-05-15T22:55:13.161Z,79.63
2023-05-15T22:57:39.731Z,79.11
2023-05-15T23:00:08.017Z,79.09
2023-05-15T23:02:34.980Z,79.37
2023-05-15T23:05:01.810Z,80.12
2023-05-15T23:07:28.437Z,80.09
2023-05-15T23:09:55.084Z,80.09
2023-05-15T23:12:21.684Z,80.14
2023-05-15T23:14:48.312Z,80.42
2023-05-15T23:17:15.049Z,80.71
2023-05-15T23:19:42.164Z,80.15
2023-05-15T23:22:08.869Z,80.60
2023-05-15T23:24:35.630Z,80.25
2023-05-15T23:27:02.259Z,80.63
2023-05-15T23:29:29.049Z,80.65
2023-05-15T23:31:57.102Z,80.94
2023-05-15T23:34:23.890Z,80.53
2023-05-15T23:36:50.524Z,80.33
2023-05-15T23:39:17.140Z,79.58
2023-05-15T23:41:43.780Z,79.44
2023-05-15T23:44:10.385Z,79.91
2023-05-15T23:46:38.360Z,79.52
2023-05-15T23:49:05.050Z,79.40
2023-05-15T23:51:31.948Z,79.87
2023-05-15T23:53:58.695Z,79.56
2023-05-15T23:56:25.674Z,79.60
2023-05-15T23:58:52.323Z,79.49
